Terminal Aerodrome Forecast
Issued by NWS

Home | Current Version | Previous Version | Text Only | Print | Product List | Glossary On
Versions: 1 2 3 4 5 6 7 8 9 10 11 12 13 14 15 16 17 18 19 20 21 22 23 24 25 26 27 28
000
FTUS42 KMLB 140603 RRA
TAFTIX
TAF
KTIX 140603Z 1406/1506 06012KT P6SM SCT040 BKN250
     FM141500 08011KT P6SM SCT030 BKN050
     FM141800 09011KT P6SM VCSH BKN035
     FM150200 10006KT P6SM SCT030 BKN050
     AMD NOT SKED TIL 141200=

USA.gov is the U.S. government's official web portal to all federal, state and local government web resources and services.